Time;durP1;ratioP1;P1;durP2;ratioP2;P2;SDS_P1;SDS_P2;PMS_P1;PMS_P2;Temp;Humidity;BMP_temperature;BMP_pressure;BME280_temperature;BME280_humidity;BME280_pressure;Samples;Min_cycle;Max_cycle;Signal;HPM_P1;HPM_P2
2023/01/01 00:01:41;;;;;;;42.53;17.05;;;;;;;1.89;100.00;102029.40;1792083;80;21618;-86
2023/01/01 00:04:14;;;;;;;48.13;16.40;;;;;;;1.86;100.00;102030.56;1792251;80;21237;-85
2023/01/01 00:06:42;;;;;;;41.08;16.30;;;;;;;1.87;100.00;102028.73;1792286;80;21021;-86
2023/01/01 00:11:54;;;;;;;36.88;15.20;;;;;;;1.78;100.00;102028.72;1792077;80;20986;-83
2023/01/01 00:14:20;;;;;;;43.95;16.27;;;;;;;1.76;100.00;102045.32;1792383;80;20940;-85
2023/01/01 00:16:46;;;;;;;41.60;15.38;;;;;;;1.74;100.00;102047.34;1792393;80;21224;-85
2023/01/01 00:19:12;;;;;;;43.25;16.45;;;;;;;1.72;100.00;102041.84;1792262;80;21017;-85
2023/01/01 00:21:39;;;;;;;41.92;16.07;;;;;;;1.76;100.00;102036.02;1792202;80;21014;-86
2023/01/01 00:24:06;;;;;;;47.23;16.70;;;;;;;1.81;100.00;102026.23;1792451;80;21032;-85
2023/01/01 00:26:33;;;;;;;44.03;16.35;;;;;;;1.84;100.00;102025.90;1792629;80;20997;-85
2023/01/01 00:28:59;;;;;;;44.80;16.37;;;;;;;1.87;100.00;102032.20;1792105;80;21044;-84
2023/01/01 00:31:25;;;;;;;43.78;16.80;;;;;;;1.88;100.00;102031.20;1792404;80;21051;-84
2023/01/01 00:33:53;;;;;;;47.38;17.00;;;;;;;1.91;100.00;102038.88;1792421;80;21048;-85
2023/01/01 00:36:22;;;;;;;42.27;16.25;;;;;;;1.93;100.00;102040.02;1792384;80;21579;-85
2023/01/01 00:38:48;;;;;;;43.78;16.90;;;;;;;1.96;100.00;102044.50;1792374;80;21020;-85
2023/01/01 00:41:16;;;;;;;43.60;17.27;;;;;;;1.97;100.00;102042.19;1792571;80;21143;-82
2023/01/01 00:43:43;;;;;;;40.55;16.00;;;;;;;2.00;100.00;102038.34;1792053;80;21449;-85
2023/01/01 00:46:10;;;;;;;48.33;17.65;;;;;;;2.02;100.00;102027.88;1792260;80;20988;-86
2023/01/01 00:48:37;;;;;;;40.92;16.37;;;;;;;2.03;100.00;102016.77;1789326;80;21032;-84
2023/01/01 00:51:04;;;;;;;50.67;17.77;;;;;;;2.05;100.00;102002.78;1792404;80;21512;-91
2023/01/01 00:53:30;;;;;;;57.73;19.52;;;;;;;2.10;100.00;102011.09;1792497;80;21284;-85
2023/01/01 00:55:57;;;;;;;47.95;19.50;;;;;;;2.14;100.00;102005.75;1792490;80;21001;-86
2023/01/01 00:58:24;;;;;;;54.90;19.85;;;;;;;2.19;100.00;102009.25;1792628;80;21036;-90
2023/01/01 01:00:52;;;;;;;49.58;18.15;;;;;;;2.23;100.00;102015.88;1792410;80;20993;-85
2023/01/01 01:03:27;;;;;;;52.45;19.82;;;;;;;2.24;100.00;102024.20;1792541;80;21004;-85
2023/01/01 01:06:05;;;;;;;53.17;18.85;;;;;;;2.30;100.00;102021.38;1792314;80;21201;-87
2023/01/01 01:08:33;;;;;;;50.70;18.73;;;;;;;2.36;100.00;102024.68;1792514;80;20996;-87
2023/01/01 01:11:22;;;;;;;46.18;18.55;;;;;;;2.38;100.00;102023.98;1792414;80;20973;-87
2023/01/01 01:13:52;;;;;;;50.65;19.57;;;;;;;2.43;100.00;102017.66;1788704;80;21094;-87
2023/01/01 01:16:29;;;;;;;51.65;19.57;;;;;;;2.47;100.00;102018.50;1758826;81;21093;-87
2023/01/01 01:18:59;;;;;;;49.45;19.32;;;;;;;2.47;100.00;102007.86;1758798;81;21093;-86
2023/01/01 01:21:28;;;;;;;52.35;18.40;;;;;;;2.50;100.00;101999.53;1755038;81;20994;-88
2023/01/01 01:23:58;;;;;;;55.98;19.60;;;;;;;2.54;100.00;101994.69;1758825;81;21073;-85
2023/01/01 01:26:28;;;;;;;49.05;17.82;;;;;;;2.58;100.00;101992.00;1758485;81;21072;-84
2023/01/01 01:28:55;;;;;;;45.20;16.80;;;;;;;2.60;100.00;101988.67;1758734;81;21202;-84
2023/01/01 01:31:25;;;;;;;41.02;16.45;;;;;;;2.62;100.00;101986.67;1758695;81;21179;-87
2023/01/01 01:33:51;;;;;;;45.90;16.05;;;;;;;2.62;100.00;101981.36;1758812;81;21041;-87
2023/01/01 01:36:19;;;;;;;45.65;17.23;;;;;;;2.66;100.00;101981.83;1758933;81;21560;-87
2023/01/01 01:38:46;;;;;;;43.48;16.05;;;;;;;2.68;100.00;101983.83;1758763;80;21037;-87
2023/01/01 01:41:15;;;;;;;37.50;15.10;;;;;;;2.71;100.00;101988.80;1758855;81;21077;-86
2023/01/01 01:43:46;;;;;;;43.60;15.05;;;;;;;2.75;100.00;101975.97;1758538;81;22911;-87
2023/01/01 01:46:23;;;;;;;37.67;15.18;;;;;;;2.78;100.00;101977.78;1686124;84;21049;-88
2023/01/01 01:48:52;;;;;;;42.70;17.02;;;;;;;2.81;100.00;101972.61;1680785;85;21037;-86
2023/01/01 01:51:29;;;;;;;45.65;17.23;;;;;;;2.85;100.00;101975.23;1659635;85;21070;-88
2023/01/01 01:54:00;;;;;;;42.67;16.50;;;;;;;2.87;100.00;101970.58;1628784;88;21100;-87
2023/01/01 01:56:38;;;;;;;42.73;15.90;;;;;;;2.88;100.00;101973.08;1631112;88;21132;-87
2023/01/01 01:59:04;;;;;;;42.88;16.80;;;;;;;2.89;100.00;101974.73;1589981;90;21067;-86
2023/01/01 02:01:31;;;;;;;38.30;15.50;;;;;;;2.92;100.00;101965.06;1630843;87;21107;-86
2023/01/01 02:04:00;;;;;;;45.50;16.05;;;;;;;2.94;100.00;101970.20;1604957;89;21095;-87
2023/01/01 02:06:30;;;;;;;41.53;15.70;;;;;;;2.98;100.00;101971.52;1630781;88;21139;-86
2023/01/01 02:09:00;;;;;;;44.18;16.73;;;;;;;2.99;100.00;101950.53;1604836;89;21517;-87
2023/01/01 02:11:26;;;;;;;43.00;16.48;;;;;;;3.03;100.00;101945.20;1630829;88;21570;-86
2023/01/01 02:13:54;;;;;;;41.42;16.57;;;;;;;3.04;100.00;101957.50;1593830;88;21049;-87
2023/01/01 02:16:57;;;;;;;48.13;17.57;;;;;;;3.07;100.00;101958.48;1589209;90;21750;-86
2023/01/01 02:19:49;;;;;;;47.20;18.40;;;;;;;3.08;100.00;101953.47;1641247;87;21150;-93
2023/01/01 02:22:37;;;;;;;52.85;18.87;;;;;;;3.13;100.00;101938.30;1630265;87;21792;-89
2023/01/01 02:25:30;;;;;;;47.60;17.25;;;;;;;3.13;100.00;101945.78;1689952;84;21074;-86
2023/01/01 02:28:24;;;;;;;46.40;17.67;;;;;;;3.16;100.00;101932.63;1661964;85;21053;-84
2023/01/01 02:30:53;;;;;;;42.67;17.32;;;;;;;3.18;100.00;101918.13;1659799;85;21038;-86
2023/01/01 02:33:23;;;;;;;55.80;19.62;;;;;;;3.21;100.00;101917.42;1661990;86;20983;-87
2023/01/01 02:35:58;;;;;;;51.13;19.12;;;;;;;3.21;100.00;101923.60;1661753;85;21116;-87
2023/01/01 02:38:38;;;;;;;46.35;18.73;;;;;;;3.21;100.00;101912.09;1632318;87;21098;-87
2023/01/01 02:41:19;;;;;;;48.42;18.45;;;;;;;3.21;100.00;101905.44;1628785;87;21504;-86
2023/01/01 02:43:45;;;;;;;51.02;19.32;;;;;;;3.23;100.00;101906.09;1632253;87;21079;-87
2023/01/01 02:46:12;;;;;;;44.35;18.00;;;;;;;3.24;100.00;101912.59;1632206;86;21063;-86
2023/01/01 02:48:46;;;;;;;41.48;16.80;;;;;;;3.25;100.00;101914.74;1589592;89;21289;-86
2023/01/01 02:52:06;;;;;;;42.75;17.23;;;;;;;3.25;100.00;101903.58;1670531;85;21118;-86
2023/01/01 02:55:00;;;;;;;45.23;16.60;;;;;;;3.29;100.00;101885.39;1642467;86;20992;-87
2023/01/01 02:57:38;;;;;;;47.30;16.80;;;;;;;3.29;100.00;101863.58;1688010;85;21033;-84
2023/01/01 03:00:30;;;;;;;45.63;17.50;;;;;;;3.29;100.00;101852.09;1639393;86;21096;-85
2023/01/01 03:03:19;;;;;;;46.02;17.60;;;;;;;3.29;100.00;101852.09;1688262;85;21189;-85
2023/01/01 03:06:21;;;;;;;51.63;18.73;;;;;;;3.25;100.00;101862.80;1662976;85;21109;-84
2023/01/01 03:09:16;;;;;;;48.68;19.48;;;;;;;3.22;100.00;101867.16;1660295;86;21042;-85
2023/01/01 03:12:05;;;;;;;56.63;20.40;;;;;;;3.19;100.00;101882.48;1616478;88;21577;-86
2023/01/01 03:14:49;;;;;;;55.30;20.45;;;;;;;3.15;100.00;101893.18;1580988;90;21087;-86
2023/01/01 03:17:25;;;;;;;58.15;22.60;;;;;;;3.11;100.00;101887.86;1538631;93;21981;-84
2023/01/01 03:19:53;;;;;;;53.15;21.05;;;;;;;3.09;100.00;101898.37;1578417;90;21640;-85
2023/01/01 03:22:23;;;;;;;57.20;21.45;;;;;;;3.08;100.00;101892.22;1540861;93;21113;-85
2023/01/01 03:24:58;;;;;;;56.77;22.00;;;;;;;3.08;100.00;101881.56;1581039;90;21089;-86
2023/01/01 03:27:32;;;;;;;57.38;20.77;;;;;;;3.11;100.00;101861.23;1540875;93;21179;-88
2023/01/01 03:30:02;;;;;;;60.40;22.98;;;;;;;3.13;100.00;101849.91;1577853;90;21372;-87
2023/01/01 03:33:06;;;;;;;56.92;22.22;;;;;;;3.14;100.00;101848.89;1540958;93;21078;-85
2023/01/01 03:35:50;;;;;;;59.00;23.12;;;;;;;3.17;100.00;101849.86;1606266;88;21107;-86
2023/01/01 03:38:28;;;;;;;;;;;;;;;3.19;100.00;101841.70;1621378;88;21091;-86
2023/01/01 03:41:00;;;;;;;66.25;23.73;;;;;;;3.17;100.00;101849.04;1617651;88;20473;-84
2023/01/01 03:43:55;;;;;;;62.17;23.25;;;;;;;3.19;100.00;101860.34;1546151;92;21073;-84
2023/01/01 03:46:25;;;;;;;63.30;23.22;;;;;;;3.19;100.00;101863.83;1553704;91;21117;-85
2023/01/01 03:48:56;;;;;;;69.67;26.75;;;;;;;3.19;100.00;101863.02;1538717;93;21076;-85
2023/01/01 03:52:02;;;;;;;68.85;24.18;;;;;;;3.21;100.00;101863.67;1549840;91;21117;-86
2023/01/01 03:54:55;;;;;;;67.00;24.60;;;;;;;3.23;100.00;101860.81;1571649;90;21047;-85
2023/01/01 03:57:44;;;;;;;75.37;25.95;;;;;;;3.23;100.00;101848.83;1571975;91;21151;-86
2023/01/01 04:00:27;;;;;;;72.15;25.20;;;;;;;3.24;100.00;101839.84;1571993;91;20959;-85
2023/01/01 04:02:56;;;;;;;;;;;;;;;3.27;100.00;101848.81;1538070;93;21416;-89
2023/01/01 04:05:24;;;;;;;69.55;25.23;;;;;;;3.27;100.00;101847.47;1535650;93;20141;-85
2023/01/01 04:07:52;;;;;;;68.35;25.80;;;;;;;3.28;100.00;101852.61;1519145;94;21101;-85
2023/01/01 04:10:19;;;;;;;75.87;28.10;;;;;;;3.31;100.00;101859.41;1545026;92;21294;-84
2023/01/01 04:12:56;;;;;;;71.62;27.00;;;;;;;3.32;100.00;101863.21;1545110;92;21163;-85
2023/01/01 04:15:26;;;;;;;78.65;27.42;;;;;;;3.34;100.00;101859.05;1545213;92;21530;-85
2023/01/01 04:17:53;;;;;;;71.53;26.27;;;;;;;3.36;100.00;101861.86;1538251;92;21089;-84
2023/01/01 04:20:20;;;;;;;70.25;26.33;;;;;;;3.35;100.00;101857.55;1509550;95;21652;-85
2023/01/01 04:22:47;;;;;;;63.92;24.43;;;;;;;3.35;100.00;101852.23;1509498;95;21812;-85
2023/01/01 04:25:14;;;;;;;69.35;25.27;;;;;;;3.34;100.00;101844.40;1509444;95;21197;-85
2023/01/01 04:27:41;;;;;;;64.00;24.35;;;;;;;3.34;100.00;101833.23;1509669;95;21149;-85
2023/01/01 04:30:12;;;;;;;72.37;25.35;;;;;;;3.33;100.00;101827.59;1509649;93;21074;-83
2023/01/01 04:32:38;;;;;;;73.20;26.37;;;;;;;3.31;100.00;101817.61;1509557;95;21114;-86
2023/01/01 04:35:06;;;;;;;70.22;26.15;;;;;;;3.31;100.00;101813.61;1509537;95;21257;-84
2023/01/01 04:37:35;;;;;;;70.97;25.60;;;;;;;3.32;100.00;101835.23;1509575;93;21148;-85
2023/01/01 04:40:02;;;;;;;66.75;25.60;;;;;;;3.31;100.00;101838.10;1541404;89;21023;-85
2023/01/01 04:42:29;;;;;;;74.58;26.62;;;;;;;3.33;100.00;101832.09;1613950;88;21087;-85
2023/01/01 04:44:55;;;;;;;74.17;25.85;;;;;;;3.33;100.00;101826.77;1624257;85;21038;-82
2023/01/01 04:47:21;;;;;;;67.78;24.15;;;;;;;3.33;100.00;101834.25;1657477;86;21167;-85
2023/01/01 04:49:47;;;;;;;73.30;27.25;;;;;;;3.32;100.00;101843.23;1667775;86;21140;-85
2023/01/01 04:52:14;;;;;;;74.58;26.05;;;;;;;3.33;100.00;101840.91;1780664;80;21037;-92
2023/01/01 04:54:40;;;;;;;78.07;27.35;;;;;;;3.34;100.00;101837.23;1772909;81;20987;-85
2023/01/01 04:57:06;;;;;;;74.20;26.23;;;;;;;3.34;100.00;101845.22;1792709;80;20961;-85
2023/01/01 04:59:32;;;;;;;82.88;28.25;;;;;;;3.34;100.00;101847.88;1773298;80;21691;-84
2023/01/01 05:01:58;;;;;;;75.57;27.13;;;;;;;3.34;100.00;101859.88;1792694;80;21556;-85
2023/01/01 05:04:25;;;;;;;76.55;27.32;;;;;;;3.34;100.00;101862.54;1773226;81;21062;-83
2023/01/01 05:06:51;;;;;;;68.92;25.90;;;;;;;3.34;100.00;101854.55;1792688;80;21488;-84
2023/01/01 05:09:18;;;;;;;78.95;26.82;;;;;;;3.33;100.00;101848.91;1773174;81;21598;-83
2023/01/01 05:11:44;;;;;;;72.05;26.27;;;;;;;3.34;100.00;101851.06;1792527;80;21156;-90
2023/01/01 05:14:10;;;;;;;73.05;26.75;;;;;;;3.36;100.00;101857.05;1773288;81;21035;-85
2023/01/01 05:16:38;;;;;;;79.05;27.77;;;;;;;3.34;100.00;101858.54;1792658;80;20973;-85
2023/01/01 05:19:06;;;;;;;80.55;27.32;;;;;;;3.34;100.00;101857.21;1773244;81;21012;-84
2023/01/01 05:21:36;;;;;;;76.87;26.57;;;;;;;3.37;100.00;101862.69;1792499;80;21052;-82
2023/01/01 05:24:06;;;;;;;75.40;27.02;;;;;;;3.37;100.00;101854.70;1760678;81;21064;-84
2023/01/01 05:26:36;;;;;;;87.08;29.52;;;;;;;3.36;100.00;101859.70;1774197;80;21000;-85
2023/01/01 05:29:04;;;;;;;83.10;28.92;;;;;;;3.37;100.00;101862.17;1774194;80;21042;-85
2023/01/01 05:31:34;;;;;;;83.72;29.70;;;;;;;3.41;100.00;101866.16;1774326;80;20995;-86
2023/01/01 05:34:01;;;;;;;94.32;31.12;;;;;;;3.43;100.00;101857.97;1774315;80;21046;-86
2023/01/01 05:36:32;;;;;;;90.32;30.43;;;;;;;3.44;100.00;101856.94;1774462;80;21133;-85
2023/01/01 05:38:58;;;;;;;88.92;31.20;;;;;;;3.45;100.00;101849.80;1774695;80;20992;-85
2023/01/01 05:41:25;;;;;;;83.00;28.77;;;;;;;3.47;100.00;101850.42;1747387;80;21269;-83
2023/01/01 05:43:52;;;;;;;78.67;27.98;;;;;;;3.47;100.00;101847.77;1774139;80;21564;-85
2023/01/01 05:46:22;;;;;;;87.50;29.67;;;;;;;3.50;100.00;101845.59;1774028;80;21008;-84
2023/01/01 05:48:50;;;;;;;91.78;31.65;;;;;;;3.55;100.00;101842.36;1774235;80;22065;-84
2023/01/01 05:51:21;;;;;;;89.28;29.92;;;;;;;3.60;100.00;101839.98;1774743;80;21074;-91
2023/01/01 05:53:48;;;;;;;91.12;28.73;;;;;;;3.65;100.00;101840.27;1660404;86;21147;-84
2023/01/01 05:56:15;;;;;;;82.42;28.00;;;;;;;3.70;100.00;101841.03;1642835;87;21174;-90
2023/01/01 05:58:42;;;;;;;83.22;29.32;;;;;;;3.74;100.00;101839.16;1643076;87;21097;-84
2023/01/01 06:01:17;;;;;;;82.97;28.50;;;;;;;3.78;100.00;101837.77;1642626;87;21378;-85
2023/01/01 06:03:44;;;;;;;76.55;26.17;;;;;;;3.82;100.00;101835.08;1640279;86;21046;-86
2023/01/01 06:06:13;;;;;;;78.15;27.45;;;;;;;3.85;100.00;101833.86;1642840;87;20995;-86
2023/01/01 06:08:40;;;;;;;78.70;26.95;;;;;;;3.86;100.00;101836.35;1642647;87;21047;-86
2023/01/01 06:11:10;;;;;;;84.15;27.85;;;;;;;3.86;100.00;101834.20;1642735;87;21007;-87
2023/01/01 06:13:36;;;;;;;87.17;27.25;;;;;;;3.92;100.00;101833.45;1642760;87;21686;-84
2023/01/01 06:16:03;;;;;;;90.60;28.42;;;;;;;3.95;100.00;101832.27;1642677;86;21097;-86
2023/01/01 06:18:33;;;;;;;83.60;28.17;;;;;;;3.98;100.00;101828.71;1642822;87;21523;-86
2023/01/01 06:21:12;;;;;;;81.82;27.67;;;;;;;4.02;100.00;101836.66;1643103;86;21061;-86
2023/01/01 06:23:40;;;;;;;86.90;28.42;;;;;;;4.09;100.00;101835.42;1643786;87;21727;-86
2023/01/01 06:26:17;;;;;;;78.15;26.90;;;;;;;4.15;100.00;101833.34;1643861;87;21307;-87
2023/01/01 06:28:45;;;;;;;85.92;28.10;;;;;;;4.20;100.00;101828.25;1589472;90;21065;-86
2023/01/01 06:31:15;;;;;;;88.95;29.37;;;;;;;4.23;100.00;101820.39;1589442;90;21713;-86
2023/01/01 06:33:42;;;;;;;81.95;26.93;;;;;;;4.28;100.00;101820.14;1589557;90;21030;-86
2023/01/01 06:36:12;;;;;;;78.35;26.73;;;;;;;4.35;100.00;101818.88;1589540;90;20998;-86
2023/01/01 06:38:42;;;;;;;88.27;26.85;;;;;;;4.41;100.00;101809.30;1589433;88;21266;-86
2023/01/01 06:41:12;;;;;;;79.95;26.45;;;;;;;4.48;100.00;101813.70;1589635;88;21100;-87
2023/01/01 06:43:38;;;;;;;75.47;25.35;;;;;;;4.53;100.00;101824.64;1602957;87;21031;-86
2023/01/01 06:46:20;;;;;;;81.05;26.25;;;;;;;4.59;100.00;101824.40;1658512;86;21111;-86
2023/01/01 06:48:49;;;;;;;78.20;27.00;;;;;;;4.66;100.00;101832.47;1660558;86;21557;-86
2023/01/01 06:51:22;;;;;;;77.85;25.32;;;;;;;4.73;100.00;101840.84;1683023;84;21181;-85
2023/01/01 06:53:50;;;;;;;72.45;24.80;;;;;;;4.80;100.00;101845.45;1686784;84;21038;-86
2023/01/01 06:56:18;;;;;;;77.67;26.40;;;;;;;4.85;100.00;101849.69;1690689;84;21046;-86
2023/01/01 06:58:44;;;;;;;71.25;25.75;;;;;;;4.91;100.00;101851.59;1690343;84;21065;-91
2023/01/01 07:01:20;;;;;;;82.72;26.93;;;;;;;4.95;100.00;101864.91;1690510;84;21058;-86
2023/01/01 07:03:55;;;;;;;71.60;24.98;;;;;;;5.02;100.00;101867.11;1690472;83;21733;-85
2023/01/01 07:06:23;;;;;;;75.97;24.57;;;;;;;5.07;100.00;101872.72;1670225;85;21142;-85
2023/01/01 07:08:49;;;;;;;67.82;23.70;;;;;;;5.09;100.00;101882.72;1642187;87;21076;-86
2023/01/01 07:11:16;;;;;;;77.60;25.30;;;;;;;5.14;100.00;101880.27;1670082;85;21106;-86
2023/01/01 07:13:43;;;;;;;64.97;23.27;;;;;;;5.17;100.00;101873.20;1642318;87;21045;-87
2023/01/01 07:16:10;;;;;;;75.05;25.35;;;;;;;5.20;100.00;101867.48;1669998;85;21523;-87
2023/01/01 07:18:37;;;;;;;81.47;25.25;;;;;;;5.28;100.00;101861.18;1642654;87;21112;-86
2023/01/01 07:21:05;;;;;;;64.90;23.15;;;;;;;5.33;100.00;101860.09;1669883;85;20978;-91
2023/01/01 07:23:34;;;;;;;62.58;23.45;;;;;;;5.38;100.00;101859.02;1642088;87;21086;-86
2023/01/01 07:26:00;;;;;;;65.52;21.60;;;;;;;5.38;100.00;101859.50;1688961;84;20978;-85
2023/01/01 07:28:27;;;;;;;61.30;20.68;;;;;;;5.44;100.00;101855.56;1638543;87;21131;-86
2023/01/01 07:30:53;;;;;;;60.17;21.33;;;;;;;5.46;100.00;101850.83;1666484;86;21296;-86
2023/01/01 07:33:22;;;;;;;57.48;20.23;;;;;;;5.53;100.00;101848.22;1695536;84;21181;-84
2023/01/01 07:35:49;;;;;;;57.70;20.02;;;;;;;5.58;100.00;101843.09;1695777;84;21467;-85
2023/01/01 07:38:15;;;;;;;54.63;20.23;;;;;;;5.64;100.00;101856.19;1638216;87;21539;-85
2023/01/01 07:40:42;;;;;;;53.85;19.55;;;;;;;5.76;100.00;101849.27;1667023;86;21950;-85
2023/01/01 07:43:09;;;;;;;58.50;20.82;;;;;;;5.81;100.00;101848.17;1695502;84;21025;-86
2023/01/01 07:45:35;;;;;;;59.15;18.90;;;;;;;5.89;100.00;101853.89;1695309;84;21076;-86
2023/01/01 07:48:01;;;;;;;56.42;19.60;;;;;;;5.99;100.00;101857.56;1675508;85;21632;-85
2023/01/01 07:50:31;;;;;;;55.75;19.65;;;;;;;6.08;100.00;101857.70;1676171;85;21023;-86
2023/01/01 07:52:57;;;;;;;50.00;18.85;;;;;;;6.14;100.00;101860.41;1695030;84;21838;-84
2023/01/01 07:55:24;;;;;;;48.73;18.50;;;;;;;6.23;100.00;101865.59;1695122;84;21106;-86
2023/01/01 07:57:50;;;;;;;43.58;17.30;;;;;;;6.31;100.00;101862.76;1695162;84;21043;-85
2023/01/01 08:00:20;;;;;;;46.80;17.73;;;;;;;6.40;100.00;101868.77;1695109;84;21086;-87
2023/01/01 08:02:47;;;;;;;44.50;16.95;;;;;;;6.44;100.00;101860.63;1734297;80;21031;-86
2023/01/01 08:05:13;;;;;;;46.02;16.12;;;;;;;6.53;100.00;101858.93;1772646;81;21275;-85
2023/01/01 08:07:45;;;;;;;47.50;16.87;;;;;;;6.62;100.00;101849.34;1792353;80;21008;-85
2023/01/01 08:10:12;;;;;;;46.65;18.10;;;;;;;6.70;100.00;101851.33;1772433;81;21009;-86
2023/01/01 08:12:38;;;;;;;40.80;16.12;;;;;;;6.76;100.00;101853.20;1792556;80;21067;-86
2023/01/01 08:15:05;;;;;;;44.10;17.17;;;;;;;6.87;100.00;101854.98;1772644;81;20980;-90
2023/01/01 08:17:31;;;;;;;48.17;17.27;;;;;;;6.91;100.00;101856.21;1792500;80;21848;-85
2023/01/01 08:19:58;;;;;;;48.13;18.45;;;;;;;6.98;100.00;101849.84;1772652;81;21500;-86
2023/01/01 08:22:24;;;;;;;47.43;17.10;;;;;;;7.08;100.00;101849.42;1792554;80;21027;-92
2023/01/01 08:24:50;;;;;;;41.83;16.37;;;;;;;7.17;100.00;101842.01;1772785;80;21011;-85
2023/01/01 08:27:17;;;;;;;39.35;16.17;;;;;;;7.21;100.00;101849.97;1766084;80;21059;-87
2023/01/01 08:29:45;;;;;;;48.48;18.00;;;;;;;7.23;100.00;101848.70;1772601;80;21071;-86
2023/01/01 08:32:12;;;;;;;45.33;16.95;;;;;;;7.30;100.00;101846.05;1792637;80;21035;-85
2023/01/01 08:34:38;;;;;;;39.92;16.02;;;;;;;7.33;100.00;101840.78;1710394;83;21071;-86
2023/01/01 08:37:05;;;;;;;40.58;16.35;;;;;;;7.32;100.00;101842.61;1729002;83;21010;-87
2023/01/01 08:39:32;;;;;;;39.65;15.72;;;;;;;7.31;100.00;101847.68;1741471;82;21011;-86
2023/01/01 08:42:00;;;;;;;39.50;16.30;;;;;;;7.31;100.00;101846.86;1741645;82;21870;-85
2023/01/01 08:44:26;;;;;;;40.78;16.15;;;;;;;7.35;100.00;101852.11;1741633;82;20984;-85
2023/01/01 08:46:52;;;;;;;39.55;14.70;;;;;;;7.33;100.00;101846.97;1741750;82;21060;-84
2023/01/01 08:49:20;;;;;;;41.63;17.17;;;;;;;7.31;100.00;101849.55;1717586;82;21054;-84
2023/01/01 08:51:47;;;;;;;41.77;16.48;;;;;;;7.27;100.00;101850.48;1741853;82;21572;-82
2023/01/01 08:54:15;;;;;;;39.75;15.85;;;;;;;7.20;100.00;101845.09;1741958;82;21520;-84
2023/01/01 08:56:41;;;;;;;38.35;15.38;;;;;;;7.19;100.00;101840.77;1742343;82;20956;-84
2023/01/01 08:59:07;;;;;;;41.00;15.88;;;;;;;7.18;100.00;101837.80;1757336;80;21003;-85
2023/01/01 09:01:33;;;;;;;39.80;15.72;;;;;;;7.23;100.00;101825.91;1792768;80;21061;-84
2023/01/01 09:03:59;;;;;;;40.67;15.55;;;;;;;7.28;100.00;101822.10;1773384;81;21058;-84
2023/01/01 09:06:26;;;;;;;36.33;14.63;;;;;;;7.30;100.00;101825.93;1792835;80;21536;-85
2023/01/01 09:08:52;;;;;;;37.65;16.37;;;;;;;7.32;100.00;101829.20;1773432;81;21539;-84
2023/01/01 09:11:25;;;;;;;38.17;16.10;;;;;;;7.34;100.00;101818.29;1792982;80;21454;-90
2023/01/01 09:13:52;;;;;;;;;;;;;;;7.36;100.00;101813.03;1710147;84;21016;-85
2023/01/01 09:16:19;;;;;;;37.78;15.80;;;;;;;7.41;100.00;101811.05;1730313;82;20168;-85
2023/01/01 09:18:46;;;;;;;34.58;14.23;;;;;;;7.56;100.00;101794.23;1729967;83;21840;-83
2023/01/01 09:21:12;;;;;;;35.05;14.18;;;;;;;7.70;100.00;101802.52;1729779;81;21038;-85
2023/01/01 09:23:39;;;;;;;36.98;14.65;;;;;;;7.85;100.00;101800.95;1730216;82;21021;-84
2023/01/01 09:26:07;;;;;;;35.13;13.83;;;;;;;7.99;100.00;101796.34;1730115;82;21030;-86
2023/01/01 09:28:35;;;;;;;35.43;15.28;;;;;;;8.21;100.00;101795.54;1729871;82;21570;-86
2023/01/01 09:31:01;;;;;;;35.98;14.75;;;;;;;8.42;100.00;101793.08;1729909;82;21293;-85
2023/01/01 09:33:28;;;;;;;35.38;14.87;;;;;;;8.70;100.00;101786.48;1729720;82;21030;-86
2023/01/01 09:35:54;;;;;;;31.75;13.58;;;;;;;8.88;100.00;101791.91;1729791;83;21062;-85
2023/01/01 09:38:20;;;;;;;29.00;13.13;;;;;;;9.06;100.00;101792.52;1730021;83;21026;-85
2023/01/01 09:41:10;;;;;;;33.67;14.65;;;;;;;9.20;100.00;101790.52;1729914;82;21029;-84
2023/01/01 09:43:54;;;;;;;32.20;14.25;;;;;;;9.30;100.00;101791.67;1702537;83;21034;-85
2023/01/01 09:46:24;;;;;;;30.92;12.73;;;;;;;9.33;100.00;101799.83;1688266;85;21040;-84
2023/01/01 09:48:57;;;;;;;37.35;16.23;;;;;;;9.34;100.00;101800.11;1611031;89;21029;-84
2023/01/01 09:51:28;;;;;;;31.55;14.60;;;;;;;9.39;100.00;101809.70;1577753;89;21120;-84
2023/01/01 09:54:14;;;;;;;30.65;13.28;;;;;;;9.49;100.00;101816.72;1610850;87;21685;-85
2023/01/01 09:56:44;;;;;;;31.05;13.48;;;;;;;9.52;100.00;101801.47;1605010;88;21387;-85
2023/01/01 09:59:10;;;;;;;29.42;13.60;;;;;;;9.53;100.00;101787.00;1610903;87;21536;-85
2023/01/01 10:01:54;;;;;;;31.62;14.10;;;;;;;9.54;100.00;101790.50;1611007;87;21699;-83
2023/01/01 10:04:25;;;;;;;32.17;13.65;;;;;;;9.48;100.00;101778.77;1560419;92;21043;-83
2023/01/01 10:07:24;;;;;;;30.10;13.65;;;;;;;9.40;100.00;101772.32;1531841;93;21063;-84
2023/01/01 10:10:29;;;;;;;30.68;13.32;;;;;;;9.38;100.00;101766.86;1473729;97;21144;-85
2023/01/01 10:13:33;;;;;;;34.08;14.07;;;;;;;9.37;100.00;101758.50;1441827;99;21267;-81
2023/01/01 10:16:19;;;;;;;28.55;13.03;;;;;;;9.45;100.00;101755.00;1420701;100;21140;-84
2023/01/01 10:18:49;;;;;;;29.37;13.08;;;;;;;9.52;100.00;101753.04;1422291;100;21334;-82
2023/01/01 10:21:29;;;;;;;31.23;12.95;;;;;;;9.60;100.00;101753.80;1423140;100;21082;-82
2023/01/01 10:24:00;;;;;;;30.35;12.45;;;;;;;9.66;100.00;101756.41;1370579;104;21489;-84
2023/01/01 10:26:29;;;;;;;25.45;12.65;;;;;;;9.63;100.00;101751.48;1370815;104;21176;-82
2023/01/01 10:29:23;;;;;;;30.10;13.48;;;;;;;9.58;100.00;101746.47;1370685;104;21132;-85
2023/01/01 10:31:50;;;;;;;29.92;13.00;;;;;;;9.56;100.00;101745.36;1351234;106;21120;-84
2023/01/01 10:34:24;;;;;;;30.92;13.38;;;;;;;9.58;100.00;101734.36;1369942;104;21308;-81
2023/01/01 10:36:55;;;;;;;32.23;13.75;;;;;;;9.55;100.00;101721.64;1351228;106;21422;-84
2023/01/01 10:39:24;;;;;;;31.07;13.70;;;;;;;9.53;100.00;101725.63;1314136;109;21196;-83
2023/01/01 10:41:51;;;;;;;27.62;12.68;;;;;;;9.55;100.00;101729.72;1331325;106;21214;-84
2023/01/01 10:44:31;;;;;;;28.05;12.07;;;;;;;9.67;100.00;101721.71;1350851;106;21627;-84
2023/01/01 10:47:02;;;;;;;30.17;13.18;;;;;;;9.70;100.00;101721.78;1380344;99;21665;-84
2023/01/01 10:49:28;;;;;;;31.27;13.70;;;;;;;9.75;100.00;101730.02;1451942;98;21870;-84
2023/01/01 10:51:55;;;;;;;31.05;13.68;;;;;;;9.84;100.00;101737.26;1455217;98;21595;-88
2023/01/01 10:54:32;;;;;;;29.57;13.03;;;;;;;9.89;100.00;101730.15;1455428;98;22270;-83
2023/01/01 10:57:03;;;;;;;29.37;12.82;;;;;;;9.94;100.00;101731.64;1452743;98;21153;-84
2023/01/01 10:59:38;;;;;;;28.27;12.80;;;;;;;10.04;100.00;101730.27;1454494;98;21608;-83
2023/01/01 11:02:26;;;;;;;33.02;13.72;;;;;;;10.07;100.00;101729.81;1470210;96;21284;-88
2023/01/01 11:05:14;;;;;;;27.73;13.25;;;;;;;10.05;100.00;101736.77;1468447;97;21077;-83
2023/01/01 11:07:43;;;;;;;31.00;13.40;;;;;;;10.00;100.00;101728.56;1468517;97;21153;-84
2023/01/01 11:10:22;;;;;;;29.42;12.68;;;;;;;9.99;100.00;101718.30;1468513;97;21151;-83
2023/01/01 11:12:51;;;;;;;33.20;13.85;;;;;;;9.98;100.00;101711.28;1475406;97;21608;-83
2023/01/01 11:15:38;;;;;;;31.52;13.50;;;;;;;10.00;100.00;101707.84;1475295;97;21345;-84
2023/01/01 11:18:34;;;;;;;31.10;13.32;;;;;;;10.03;100.00;101715.14;1475309;97;21667;-84
2023/01/01 11:20:58;;;;;;;30.00;13.78;;;;;;;9.97;100.00;101708.30;1487677;94;21102;-81
2023/01/01 11:23:36;;;;;;;33.48;13.43;;;;;;;9.90;100.00;101710.24;1497349;94;21674;-84
2023/01/01 11:26:19;;;;;;;30.08;13.48;;;;;;;9.88;100.00;101712.36;1453359;98;21175;-82
2023/01/01 11:29:06;;;;;;;32.88;13.98;;;;;;;9.88;100.00;101704.28;1498766;94;21943;-82
2023/01/01 11:31:39;;;;;;;31.95;14.00;;;;;;;9.87;100.00;101690.50;1473873;95;21107;-83
2023/01/01 11:34:28;;;;;;;33.05;13.60;;;;;;;9.83;100.00;101683.95;1491216;94;21636;-84